Bridgewater, Iowa
Current Conditions -  °F | °C
As of 3:55 AM on Sunday 23 Nov 2014 (Local Time) from KCSQ Reporting Station
Haze Haze  
Wind Chill: 52°   Ceiling: 400
Heat Index: 52°   Visibility: 3mi
Dew Point: 52°   Wind: 13mph
Humidity: 100%   Direction: 170°S
Pressure: 29.56"   Gusts: NA
Location:  41.24°N, 94.67°W
Report Text: KCSQ 230955Z AUTO 17011KT 3SM BR OVC004 11/11 A2956 RMK AO2
Loading
Personal Weather Stations






























Interactive Weather Map New forecast layout! Learn more

10-Day Weather Forecast

Advertisements
Track Severe Weather on mobile